Current Conditions
Mostly Clear
Conditions



Pressure
1018.92 (hPa) - 30.09 (inHG)
Visibility

10.0 (km) - 6.2 (miles)
Temperature
29  °C
Temperature
14  °C
Dewpoint
40  %
 Humidity
Wind Speed
23  km/h
12  kts
14  mph
6.3  m/s
Wind Direction
N
45°
E
90°
135°
S
180°
225°
W
270°
315°
 170°

Due South
Airport Data
LIPB
Bolzano Airport
Metar :LIPB 201650Z 17012G23KT 140V210 CAVOK 29/14 Q1019
Fri 20th May 18:50 pm
Raw Metar Info
Raw METAR is the most common format in the world for the transmission of observational weather data. It is highly standardized through the International Civil Aviation Organization (ICAO), which allows it to be understood throughout most of the world.
API Info
Data Provided by
https://www.checkwx.com/weather/LIPB

Aviation Weather providing METAR, TAF, AIRMET, SIGMET and OUTLOOK Weather Reports
© Info
CSS/SVG/PHP scripts were developed by weather34 for use in the weather34 template © 2015-2022

Guide Info provided by Metar-Wikipedia